.
WxDataArchive / Data Records for 2012-06-25
2012-06-24 June 2012 2012-06-26

Data Records for Monday, 25 June 2012

Time	Temp	Chill	HIndex	Humid	Dewpt	 Wind 	HiWind	WindDir	Rain 	Barom 
-----	----	-----	------	-----	-----	------	------	-------	-----	----- 
00:00	77.6	77.6	79.0	50	57.5	0	1	270	0.00	29.877 
00:05	77.4	77.4	78.9	51	57.8	0	1	270	0.00	29.877 
00:10	77.2	77.2	78.7	51	57.6	0	1	270	0.00	29.877 
00:15	77.2	77.2	78.8	52	58.2	0	1	270	0.00	29.876 
00:20	77.0	77.0	78.7	52	58.0	0	2	270	0.00	29.876 
00:25	76.8	76.8	78.5	53	58.4	0	1	270	0.00	29.876 
00:30	76.8	76.8	78.5	53	58.4	0	1	270	0.00	29.875 
00:35	76.7	76.7	78.5	53	58.3	0	1	270	0.00	29.875 
00:40	76.7	76.7	78.5	54	58.8	0	1	270	0.00	29.875 
00:45	76.5	76.5	78.4	54	58.6	0	1	270	0.00	29.874 
00:50	76.3	76.3	78.3	54	58.4	0	2	270	0.00	29.874 
00:55	76.3	76.3	78.3	54	58.4	0	2	270	0.00	29.874 
01:00	76.3	76.3	78.3	54	58.4	0	2	270	0.00	29.874 
01:05	76.1	76.1	78.1	54	58.2	0	2	270	0.00	29.874 
01:10	76.1	76.1	78.1	55	58.7	0	1	270	0.00	29.874 
01:15	76.0	76.0	78.1	55	58.6	0	1	270	0.00	29.871 
01:20	75.8	75.8	77.9	56	59.0	0	1	270	0.00	29.871 
01:25	75.4	75.4	77.7	56	58.6	0	1	270	0.00	29.871 
01:30	75.3	75.3	77.6	57	59.0	0	1	270	0.00	29.874 
01:35	75.1	75.1	77.5	57	58.8	0	2	270	0.00	29.874 
01:40	75.1	75.1	77.5	57	58.8	0	1	270	0.00	29.874 
01:45	74.9	74.9	74.9	58	59.1	0	1	270	0.00	29.874 
01:50	74.7	74.7	74.7	58	58.9	0	1	270	0.00	29.874 
01:55	74.7	74.7	74.7	58	58.9	0	1	270	0.00	29.874 
02:00	74.6	74.6	74.6	58	58.8	0	2	270	0.00	29.873 
02:05	74.6	74.6	74.6	58	58.8	0	1	270	0.00	29.873 
02:10	74.6	74.6	74.6	58	58.8	0	1	270	0.00	29.873 
02:15	74.4	74.4	74.4	59	59.1	0	1	270	0.00	29.876 
02:20	74.2	74.2	74.2	59	58.9	0	1	270	0.00	29.876 
02:25	74.0	74.0	74.0	59	58.7	0	2	270	0.00	29.876 
02:30	74.0	74.0	74.0	60	59.2	0	4	270	0.00	29.876 
02:35	73.9	73.9	73.9	60	59.1	0	3	270	0.00	29.876 
02:40	73.9	73.9	73.9	60	59.1	0	3	270	0.00	29.876 
02:45	73.9	73.9	73.9	61	59.6	0	2	270	0.00	29.877 
02:50	73.9	73.9	73.9	61	59.6	1	3	270	0.00	29.877 
02:55	73.9	73.9	73.9	61	59.6	0	2	270	0.00	29.877 
03:00	73.9	73.9	73.9	62	60.0	1	3	292	0.00	29.878 
03:05	73.7	73.7	73.7	62	59.9	0	4	180	0.00	29.878 
03:10	73.7	73.7	73.7	62	59.9	0	2	112	0.00	29.878 
03:15	73.5	73.5	73.5	63	60.1	0	1	112	0.00	29.880 
03:20	73.3	73.3	73.3	64	60.4	0	1	45	0.00	29.880 
03:25	73.2	73.2	73.2	64	60.3	0	1	45	0.00	29.880 
03:30	73.0	73.0	73.0	65	60.5	0	2	45	0.00	29.885 
03:35	72.7	72.7	72.7	65	60.2	0	2	45	0.00	29.885 
03:40	72.5	72.5	72.5	66	60.5	0	2	292	0.00	29.885 
03:45	72.3	72.3	72.3	67	60.7	0	3	292	0.00	29.891 
03:50	72.1	72.1	72.1	67	60.5	0	2	202	0.00	29.891 
03:55	72.1	72.1	72.1	67	60.5	0	3	202	0.00	29.891 
04:00	72.0	72.0	72.0	67	60.4	0	4	158	0.00	29.891 
04:05	71.8	71.8	71.8	68	60.7	0	3	135	0.00	29.891 
04:10	71.8	71.8	71.8	68	60.7	0	3	270	0.00	29.891 
04:15	71.6	71.6	71.6	68	60.5	0	2	270	0.00	29.894 
04:20	71.5	71.5	71.5	68	60.4	0	2	270	0.00	29.894 
04:25	71.3	71.3	71.3	69	60.6	0	3	90	0.00	29.894 
04:30	71.1	71.1	71.1	69	60.4	0	2	90	0.00	29.901 
04:35	70.9	70.9	70.9	69	60.2	0	3	90	0.00	29.901 
04:40	70.8	70.8	70.8	70	60.5	0	2	90	0.00	29.901 
04:45	70.8	70.8	70.8	71	60.9	0	2	90	0.00	29.906 
04:50	70.4	70.4	70.4	71	60.5	1	4	90	0.00	29.906 
04:55	70.3	70.3	70.3	71	60.4	0	2	90	0.00	29.906 
05:00	70.1	70.1	70.1	71	60.2	0	2	338	0.00	29.910 
05:05	69.8	69.8	69.8	71	60.0	0	3	338	0.00	29.910 
05:10	69.6	69.6	69.6	72	60.2	0	2	135	0.00	29.910 
05:15	69.4	69.4	69.4	72	60.0	0	0	---	0.00	29.914 
05:20	69.3	69.3	69.3	73	60.3	0	2	135	0.00	29.914 
05:25	69.1	69.1	69.1	73	60.1	0	5	112	0.00	29.914 
05:30	68.9	68.9	68.9	74	60.3	0	2	112	0.00	29.922 
05:35	68.6	68.6	68.6	73	59.6	1	4	270	0.00	29.922 
05:40	68.4	68.4	68.4	74	59.8	0	1	270	0.00	29.922 
05:45	68.3	68.3	68.3	74	59.7	0	1	270	0.00	29.925 
05:50	67.9	67.9	67.9	75	59.7	0	1	270	0.00	29.925 
05:55	67.8	67.8	67.8	76	59.9	0	1	270	0.00	29.925 
06:00	67.4	67.4	67.4	76	59.6	0	5	270	0.00	29.928 
06:05	67.1	67.1	67.1	76	59.3	0	1	68	0.00	29.928 
06:10	66.9	66.9	66.9	77	59.4	0	1	68	0.00	29.928 
06:15	66.6	66.6	66.6	77	59.2	0	2	68	0.00	29.941 
06:20	66.4	66.4	66.4	77	59.0	1	3	68	0.00	29.941 
06:25	66.1	66.1	66.1	77	58.7	0	4	158	0.00	29.941 
06:30	66.0	66.0	66.0	77	58.6	0	2	315	0.00	29.947 
06:35	65.8	65.8	65.8	77	58.4	0	4	112	0.00	29.947 
06:40	65.6	65.6	65.6	77	58.2	0	1	112	0.00	29.947 
06:45	65.5	65.5	65.5	77	58.1	0	3	112	0.00	29.952 
06:50	65.3	65.3	65.3	78	58.3	0	1	112	0.00	29.952 
06:55	65.2	65.2	65.2	78	58.2	0	1	112	0.00	29.952 
07:00	65.0	65.0	65.0	78	58.0	0	3	112	0.00	29.956 
07:05	64.8	64.8	64.8	77	57.4	0	2	112	0.00	29.956 
07:10	64.7	64.7	64.7	77	57.3	1	5	112	0.00	29.956 
07:15	64.7	64.7	64.7	76	57.0	0	3	315	0.00	29.961 
07:20	64.7	64.7	64.7	77	57.3	0	4	112	0.00	29.961 
07:25	65.0	65.0	65.0	76	57.2	0	2	112	0.00	29.961 
07:30	65.2	65.2	65.2	75	57.1	0	3	112	0.00	29.962 
07:35	65.2	65.2	65.2	75	57.1	0	2	90	0.00	29.962 
07:40	65.2	65.2	65.2	75	57.1	0	3	292	0.00	29.962 
07:45	65.5	65.5	65.5	76	57.7	0	1	292	0.00	29.965 
07:50	65.8	65.8	65.8	74	57.3	0	3	315	0.00	29.965 
07:55	66.1	66.1	66.1	73	57.2	0	2	338	0.00	29.965 
08:00	66.4	66.4	66.4	72	57.1	0	2	135	0.00	29.968 
08:05	66.6	66.6	66.6	70	56.5	0	2	135	0.00	29.968 
08:10	66.8	66.8	66.8	70	56.7	0	2	90	0.00	29.968 
08:15	66.9	66.9	66.9	69	56.4	0	1	90	0.00	29.968 
08:20	67.4	67.4	67.4	69	56.9	1	2	90	0.00	29.968 
08:25	67.8	67.8	67.8	68	56.8	0	2	68	0.00	29.968 
08:30	67.8	67.8	67.8	68	56.8	0	2	68	0.00	29.974 
08:35	68.1	68.1	68.1	68	57.1	0	3	68	0.00	29.974 
08:40	68.1	68.1	68.1	67	56.7	0	2	68	0.00	29.974 
08:45	67.9	67.9	67.9	67	56.5	1	4	68	0.00	29.977 
08:50	67.9	67.9	67.9	67	56.5	0	3	270	0.00	29.977 
08:55	67.8	67.8	67.8	68	56.8	1	5	292	0.00	29.977 
09:00	68.1	68.1	68.1	69	57.5	1	3	292	0.00	29.979 
09:05	68.8	68.8	68.8	66	57.0	1	4	112	0.00	29.979 
09:10	69.4	69.4	69.4	65	57.1	1	6	112	0.00	29.979 
09:15	69.8	69.8	69.8	64	57.1	1	6	112	0.00	29.982 
09:20	69.6	69.6	69.6	65	57.3	0	3	135	0.00	29.982 
09:25	70.1	70.1	70.1	65	57.8	1	3	112	0.00	29.982 
09:30	70.4	70.4	70.4	64	57.6	1	5	112	0.00	29.987 
09:35	70.4	70.4	70.4	63	57.2	1	3	90	0.00	29.987 
09:40	70.1	70.1	70.1	63	56.9	1	3	45	0.00	29.987 
09:45	70.1	70.1	70.1	63	56.9	1	3	292	0.00	29.988 
09:50	69.8	69.8	69.8	63	56.6	1	4	292	0.00	29.988 
09:55	69.9	69.9	69.9	64	57.2	1	3	292	0.00	29.988 
10:00	69.9	69.9	69.9	64	57.2	1	3	315	0.00	29.985 
10:05	70.4	70.4	70.4	63	57.2	1	5	135	0.00	29.985 
10:10	71.1	71.1	71.1	62	57.4	1	4	135	0.00	29.985 
10:15	71.3	71.3	71.3	62	57.6	1	4	90	0.00	29.985 
10:20	71.8	71.8	71.8	59	56.7	1	3	68	0.00	29.985 
10:25	71.6	71.6	71.6	59	56.5	0	3	68	0.00	29.985 
10:30	71.8	71.8	71.8	58	56.2	1	4	248	0.00	29.986 
10:35	72.5	72.5	72.5	55	55.4	1	3	135	0.00	29.986 
10:40	73.2	73.2	73.2	50	53.4	1	6	158	0.00	29.986 
10:45	73.7	73.7	73.7	45	51.0	1	5	90	0.00	29.984 
10:50	73.9	73.9	73.9	48	53.0	3	7	90	0.00	29.984 
10:55	73.5	73.5	73.5	46	51.4	3	9	112	0.00	29.984 
11:00	73.5	73.5	73.5	47	52.0	3	7	90	0.00	29.994 
11:05	73.5	73.5	73.5	46	51.4	1	6	135	0.00	29.994 
11:10	73.9	73.9	73.9	43	50.0	1	4	158	0.00	29.994 
11:15	73.7	73.7	73.7	43	49.8	1	3	315	0.00	29.993 
11:20	73.5	73.5	73.5	37	45.6	2	5	292	0.00	29.993 
11:25	73.9	73.9	73.9	39	47.4	1	5	90	0.00	29.993 
11:30	74.0	74.0	74.0	42	49.4	1	6	22	0.00	29.993 
11:35	74.0	74.0	74.0	35	44.6	1	5	270	0.00	29.993 
11:40	74.6	74.6	74.6	37	46.6	1	3	112	0.00	29.993 
11:45	74.6	74.6	74.6	33	43.6	2	5	90	0.00	29.992 
11:50	75.1	75.1	77.1	32	43.2	2	6	90	0.00	29.992 
11:55	75.1	75.1	77.2	34	44.8	1	4	248	0.00	29.992 
12:00	75.8	75.8	77.3	31	43.0	2	5	90	0.00	29.992 
12:05	75.8	75.8	77.1	28	40.4	3	9	90	0.00	29.992 
12:10	76.1	76.1	77.6	34	45.7	1	5	68	0.00	29.992 
12:15	76.3	76.3	77.5	31	43.4	1	4	135	0.00	29.994 
12:20	76.3	76.3	77.2	28	40.8	1	6	338	0.00	29.994 
12:25	76.1	76.1	77.3	30	42.4	2	5	90	0.00	29.994 
12:30	76.3	76.3	77.2	28	40.8	3	6	90	0.00	29.994 
12:35	76.3	76.3	77.3	29	41.7	3	9	112	0.00	29.994 
12:40	76.3	76.3	77.4	30	42.6	1	6	112	0.00	29.994 
12:45	76.8	76.8	77.6	30	43.0	1	4	112	0.00	29.994 
12:50	76.7	76.7	77.7	32	44.6	1	9	90	0.00	29.994 
12:55	76.8	76.8	77.8	33	45.5	1	3	135	0.00	29.994 
13:00	76.8	76.8	77.7	31	43.9	2	9	90	0.00	29.995 
13:05	76.5	76.5	77.7	34	46.0	1	6	270	0.00	29.995 
13:10	76.5	76.5	77.7	33	45.2	1	5	270	0.00	29.995 
13:15	76.8	76.8	77.8	34	46.3	3	10	112	0.00	29.984 
13:20	76.8	76.8	77.8	34	46.3	2	6	292	0.00	29.984 
13:25	77.0	77.0	77.9	33	45.7	2	6	248	0.00	29.984 
13:30	77.4	77.4	78.1	34	46.8	2	9	90	0.00	29.986 
13:35	77.6	77.6	78.1	33	46.2	1	3	292	0.00	29.986 
13:40	77.9	77.9	78.4	36	48.8	1	5	292	0.00	29.986 
13:45	78.3	78.3	78.6	35	48.4	1	5	45	0.00	29.980 
13:50	78.5	78.5	78.7	35	48.5	3	9	90	0.00	29.980 
13:55	78.3	78.3	78.4	32	46.0	3	7	90	0.00	29.980 
14:00	78.1	78.1	78.5	36	48.9	1	5	68	0.00	29.980 
14:05	78.3	78.3	78.5	34	47.6	1	4	338	0.00	29.980 
14:10	78.6	78.6	78.5	32	46.3	1	6	112	0.00	29.980 
14:15	78.6	78.6	78.6	33	47.1	3	7	90	0.00	29.979 
14:20	78.5	78.5	78.2	28	42.7	2	5	112	0.00	29.979 
14:25	78.5	78.5	78.5	32	46.2	1	4	292	0.00	29.979 
14:30	78.3	78.3	78.3	30	44.3	1	3	292	0.00	29.978 
14:35	78.1	78.1	78.2	31	45.0	2	10	90	0.00	29.978 
14:40	78.1	78.1	78.4	33	46.6	4	10	90	0.00	29.978 
14:45	78.3	78.3	78.5	34	47.6	2	9	112	0.00	29.977 
14:50	78.8	78.8	78.8	35	48.8	2	9	135	0.00	29.977 
14:55	79.2	79.2	78.8	31	45.9	1	4	90	0.00	29.977 
15:00	79.0	79.0	78.8	32	46.6	2	7	90	0.00	29.975 
15:05	78.5	78.5	78.4	31	45.3	2	4	270	0.00	29.975 
15:10	78.5	78.5	78.6	34	47.8	1	2	270	0.00	29.975 
15:15	79.0	79.0	78.8	32	46.6	2	7	90	0.00	29.974 
15:20	79.4	79.4	78.9	31	46.1	3	7	90	0.00	29.974 
15:25	79.2	79.2	78.9	32	46.8	2	10	90	0.00	29.974 
15:30	79.4	79.4	79.2	35	49.3	2	10	90	0.00	29.971 
15:35	79.0	79.0	78.8	33	47.4	2	6	90	0.00	29.971 
15:40	78.8	78.8	78.7	33	47.2	1	5	45	0.00	29.971 
15:45	79.2	79.2	78.8	31	45.9	1	4	90	0.00	29.975 
15:50	79.4	79.4	78.8	29	44.3	2	9	90	0.00	29.975 
15:55	79.4	79.4	78.8	30	45.2	1	5	68	0.00	29.975 
16:00	79.2	79.2	78.9	33	47.6	1	7	22	0.00	29.970 
16:05	79.0	79.0	78.8	32	46.6	3	10	112	0.00	29.970 
16:10	78.5	78.5	78.4	30	44.5	1	6	292	0.00	29.970 
16:15	78.6	78.6	78.4	30	44.6	3	6	90	0.00	29.966 
16:20	78.6	78.6	78.5	31	45.4	3	7	112	0.00	29.966 
16:25	78.8	78.8	78.6	32	46.4	3	9	90	0.00	29.966 
16:30	79.0	79.0	78.6	29	44.0	1	4	0	0.00	29.966 
16:35	79.2	79.2	78.9	32	46.8	1	4	90	0.00	29.966 
16:40	79.4	79.4	78.7	28	43.4	2	9	90	0.00	29.966 
16:45	79.4	79.4	78.7	28	43.4	2	6	112	0.00	29.965 
16:50	79.2	79.2	78.7	30	45.1	1	4	270	0.00	29.965 
16:55	79.4	79.4	78.8	30	45.2	1	5	90	0.00	29.965 
17:00	79.6	79.6	78.8	28	43.6	1	5	112	0.00	29.958 
17:05	79.8	79.8	78.9	28	43.8	1	3	112	0.00	29.958 
17:10	79.6	79.6	79.0	30	45.4	3	9	112	0.00	29.958 
17:15	79.2	79.2	78.7	29	44.2	2	6	90	0.00	29.959 
17:20	78.8	78.8	78.5	29	43.8	1	5	112	0.00	29.959 
17:25	78.6	78.6	78.3	28	42.7	1	3	0	0.00	29.959 
17:30	78.6	78.6	78.3	28	42.7	1	5	292	0.00	29.954 
17:35	78.8	78.8	78.5	29	43.8	2	6	90	0.00	29.954 
17:40	78.6	78.6	78.3	28	42.7	1	5	112	0.00	29.954 
17:45	78.3	78.3	78.1	28	42.5	1	4	0	0.00	29.957 
17:50	78.3	78.3	78.2	29	43.4	1	3	22	0.00	29.957 
17:55	78.3	78.3	78.1	28	42.5	1	4	90	0.00	29.957 
18:00	78.1	78.1	78.0	28	42.3	1	4	135	0.00	29.956 
18:05	77.9	77.9	77.9	27	41.2	2	7	90	0.00	29.956 
18:10	77.6	77.6	77.9	29	42.8	1	2	68	0.00	29.956 
18:15	77.6	77.6	77.8	28	41.9	1	6	112	0.00	29.957 
18:20	77.6	77.6	77.7	27	41.0	2	5	90	0.00	29.957 
18:25	77.4	77.4	77.6	27	40.8	2	7	90	0.00	29.957 
18:30	77.2	77.2	77.6	28	41.6	3	6	90	0.00	29.957 
18:35	77.0	77.0	77.5	28	41.4	1	5	112	0.00	29.957 
18:40	76.8	76.8	77.4	27	40.3	1	4	112	0.00	29.957 
18:45	76.7	76.7	77.4	28	41.1	1	5	90	0.00	29.957 
18:50	76.7	76.7	77.4	28	41.1	1	4	248	0.00	29.957 
18:55	76.7	76.7	77.4	28	41.1	1	7	112	0.00	29.957 
19:00	76.3	76.3	77.2	28	40.8	2	7	90	0.00	29.960 
19:05	76.1	76.1	77.1	27	39.7	1	4	90	0.00	29.960 
19:10	76.0	76.0	77.2	29	41.4	1	6	112	0.00	29.960 
19:15	76.0	76.0	77.1	28	40.5	1	4	135	0.00	29.961 
19:20	75.8	75.8	77.1	28	40.4	2	6	135	0.00	29.961 
19:25	75.4	75.4	76.9	28	40.0	1	5	90	0.00	29.961 
19:30	75.4	75.4	77.0	29	40.9	1	3	112	0.00	29.963 
19:35	75.3	75.3	76.9	28	39.9	3	6	112	0.00	29.963 
19:40	75.1	75.1	76.9	29	40.7	2	6	90	0.00	29.963 
19:45	74.9	74.9	74.9	30	41.4	2	4	90	0.00	29.964 
19:50	74.7	74.7	74.7	31	42.0	2	6	68	0.00	29.964 
19:55	74.6	74.6	74.6	31	42.0	1	5	68	0.00	29.964 
20:00	74.4	74.4	74.4	30	40.9	1	6	90	0.00	29.969 
20:05	74.0	74.0	74.0	30	40.6	2	6	135	0.00	29.969 
20:10	73.9	73.9	73.9	30	40.5	2	4	90	0.00	29.969 
20:15	73.7	73.7	73.7	31	41.2	1	5	90	0.00	29.968 
20:20	73.5	73.5	73.5	30	40.2	1	5	90	0.00	29.968 
20:25	73.2	73.2	73.2	31	40.7	1	5	68	0.00	29.968 
20:30	73.0	73.0	73.0	31	40.6	1	4	112	0.00	29.972 
20:35	72.7	72.7	72.7	31	40.3	1	3	135	0.00	29.972 
20:40	72.3	72.3	72.3	30	39.1	2	9	112	0.00	29.972 
20:45	72.0	72.0	72.0	32	40.5	1	2	90	0.00	29.973 
20:50	71.8	71.8	71.8	32	40.3	1	4	90	0.00	29.973 
20:55	71.5	71.5	71.5	32	40.1	0	3	90	0.00	29.973 
21:00	71.1	71.1	71.1	34	41.3	0	2	90	0.00	29.977 
21:05	70.8	70.8	70.8	35	41.8	0	2	90	0.00	29.977 
21:10	70.3	70.3	70.3	34	40.6	1	7	90	0.00	29.977 
21:15	70.1	70.1	70.1	36	41.9	0	2	45	0.00	29.975 
21:20	69.8	69.8	69.8	36	41.6	1	4	90	0.00	29.975 
21:25	69.6	69.6	69.6	36	41.5	1	4	90	0.00	29.975 
21:30	69.3	69.3	69.3	36	41.2	1	3	90	0.00	29.977 
21:35	69.1	69.1	69.1	36	41.0	1	3	90	0.00	29.977 
21:40	68.8	68.8	68.8	37	41.5	0	2	90	0.00	29.977 
21:45	68.6	68.6	68.6	37	41.3	1	3	90	0.00	29.983 
21:50	68.3	68.3	68.3	38	41.7	0	5	90	0.00	29.983 
21:55	67.9	67.9	67.9	38	41.3	0	3	90	0.00	29.983 
22:00	67.8	67.8	67.8	39	41.9	0	1	90	0.00	29.987 
22:05	67.4	67.4	67.4	39	41.6	1	3	90	0.00	29.987 
22:10	67.3	67.3	67.3	39	41.5	0	2	90	0.00	29.987 
22:15	67.1	67.1	67.1	39	41.3	1	6	90	0.00	29.990 
22:20	66.9	66.9	66.9	40	41.8	1	3	68	0.00	29.990 
22:25	66.9	66.9	66.9	40	41.8	0	2	68	0.00	29.990 
22:30	66.8	66.8	66.8	40	41.7	1	4	68	0.00	29.993 
22:35	66.6	66.6	66.6	41	42.2	1	4	90	0.00	29.993 
22:40	66.4	66.4	66.4	41	42.0	0	3	90	0.00	29.993 
22:45	66.3	66.3	66.3	42	42.5	0	2	90	0.00	29.997 
22:50	66.0	66.0	66.0	43	42.9	0	2	90	0.00	29.997 
22:55	65.8	65.8	65.8	43	42.7	0	1	90	0.00	29.997 
23:00	65.5	65.5	65.5	44	43.0	0	0	---	0.00	30.003 
23:05	65.2	65.2	65.2	44	42.7	0	1	90	0.00	30.003 
23:10	65.0	65.0	65.0	46	43.7	0	1	90	0.00	30.003 
23:15	64.7	64.7	64.7	46	43.4	0	1	90	0.00	30.005 
23:20	64.3	64.3	64.3	47	43.6	0	1	90	0.00	30.005 
23:25	64.2	64.2	64.2	47	43.5	0	1	90	0.00	30.005 
23:30	63.9	63.9	63.9	48	43.8	0	0	---	0.00	30.004 
23:35	63.7	63.7	63.7	49	44.2	0	1	90	0.00	30.004 
23:40	63.4	63.4	63.4	49	43.9	0	2	90	0.00	30.004 
23:45	63.1	63.1	63.1	49	43.6	0	0	---	0.00	30.006 
23:50	62.7	62.7	62.7	50	43.8	0	0	---	0.00	30.006 
23:55	62.4	62.4	62.4	51	44.0	0	0	---	0.00	30.006 

CoCoRaHS
IN-AL-39
A2 Web Hosting
Creative Commons License
GoDaddy
search engine by freefind advanced

loaded 2018-11-15 16:07:52 • last modified 2010-11-18 10:43:29
Privacy PolicyDisclaimer
• wx.awcolley.com is powered by PmWiki v.2002016 •
• all content (unless otherwise noted) © 2018 A W Colley